Terminal Aerodrome Forecast
Issued by NWS Wilmington, OH

Current Version | Previous Version | Text Only | Print | Product List | Glossary Off
Versions: 1 2 3 4 5 6 7 8 9 10 11 12 13 14 15 16 17 18 19 20 21 22 23 24 25 26 27 28 29 30 31

721
FTUS41 KILN 230101 AAC
TAFILN
TAF AMD
KILN 230101Z 2301/2324 10007KT 1 1/2SM BR OVC003
     FM230900 13007KT 2SM SHRA BR OVC003
     FM231200 16008KT 2SM SHRA BR OVC006
     FM231600 22012KT 4SM -SHRA BR OVC008
     FM232200 27008KT P6SM VCSH OVC015=

USA.gov is the U.S. government's official web portal to all federal, state and local government web resources and services.